createdAt,value
2022-10-20T00:02:25.622Z,6.88
2022-10-20T00:04:57.309Z,7.00
2022-10-20T00:07:28.222Z,7.18
2022-10-20T00:10:01.542Z,6.47
2022-10-20T00:12:29.427Z,6.65
2022-10-20T00:14:57.211Z,7.10
2022-10-20T00:17:30.555Z,7.13
2022-10-20T00:20:00.699Z,7.45
2022-10-20T00:22:31.377Z,6.47
2022-10-20T00:24:59.378Z,6.88
2022-10-20T00:27:32.834Z,6.70
2022-10-20T00:32:29.843Z,6.72
2022-10-20T00:34:57.865Z,6.30
2022-10-20T00:37:25.551Z,6.88
2022-10-20T00:39:55.702Z,6.78
2022-10-20T00:42:26.280Z,6.70
2022-10-20T00:45:00.692Z,6.10
2022-10-20T00:49:59.594Z,6.22
2022-10-20T00:52:27.637Z,7.47
2022-10-20T00:55:01.805Z,6.40
2022-10-20T00:57:32.015Z,6.30
2022-10-20T00:59:59.705Z,6.20
2022-10-20T01:02:35.756Z,5.95
2022-10-20T01:05:07.636Z,6.70
2022-10-20T01:07:35.749Z,7.25
2022-10-20T01:10:10.755Z,7.07
2022-10-20T01:12:50.518Z,6.70
2022-10-20T01:15:35.117Z,6.78
2022-10-20T01:18:20.870Z,6.57
2022-10-20T01:21:04.098Z,6.90
2022-10-20T01:24:25.930Z,7.10
2022-10-20T01:27:22.000Z,6.25
2022-10-20T01:30:03.615Z,6.32
2022-10-20T01:32:57.099Z,6.00
2022-10-20T01:35:45.476Z,5.50
2022-10-20T01:38:41.324Z,6.00
2022-10-20T01:41:12.354Z,6.38
2022-10-20T01:43:47.452Z,5.85
2022-10-20T01:46:20.299Z,6.18
2022-10-20T01:48:49.019Z,5.68
2022-10-20T01:51:19.138Z,5.13
2022-10-20T01:53:46.927Z,5.20
2022-10-20T01:56:28.469Z,6.03
2022-10-20T01:59:04.773Z,5.50
2022-10-20T02:01:44.726Z,5.45
2022-10-20T02:04:16.709Z,5.55
2022-10-20T02:07:09.299Z,5.47
2022-10-20T02:09:43.584Z,5.40
2022-10-20T02:12:25.557Z,5.55
2022-10-20T02:14:58.668Z,5.65
2022-10-20T02:17:30.231Z,5.68
2022-10-20T02:19:58.764Z,4.95
2022-10-20T02:22:30.642Z,5.90
2022-10-20T02:25:04.654Z,4.97
2022-10-20T02:27:39.140Z,5.05
2022-10-20T02:30:12.958Z,4.97
2022-10-20T02:32:49.412Z,5.03
2022-10-20T02:35:26.382Z,5.20
2022-10-20T02:37:54.409Z,5.22
2022-10-20T02:40:24.940Z,5.13
2022-10-20T02:42:58.192Z,5.25
2022-10-20T02:45:31.340Z,5.45
2022-10-20T02:48:03.303Z,5.13
2022-10-20T02:50:34.615Z,5.22
2022-10-20T02:53:08.292Z,4.97
2022-10-20T02:55:38.305Z,4.80
2022-10-20T02:58:06.524Z,5.45
2022-10-20T03:00:36.885Z,4.70
2022-10-20T03:03:04.609Z,4.68
2022-10-20T03:05:32.363Z,4.90
2022-10-20T03:08:07.018Z,5.10
2022-10-20T03:10:37.646Z,4.78
2022-10-20T03:13:10.404Z,4.82
2022-10-20T03:15:40.320Z,4.63
2022-10-20T03:18:10.328Z,4.80
2022-10-20T03:20:39.164Z,4.60
2022-10-20T03:23:06.955Z,4.75
2022-10-20T03:25:34.664Z,4.63
2022-10-20T03:28:02.451Z,4.72
2022-10-20T03:30:30.831Z,4.60
2022-10-20T03:32:58.708Z,5.20
2022-10-20T03:35:31.334Z,4.47
2022-10-20T03:37:59.276Z,4.25
2022-10-20T03:40:29.532Z,4.82
2022-10-20T03:42:57.350Z,4.60
2022-10-20T03:45:30.389Z,4.97
2022-10-20T03:48:02.709Z,4.55
2022-10-20T03:50:33.772Z,4.07
2022-10-20T03:53:13.723Z,4.45
2022-10-20T03:55:45.159Z,3.85
2022-10-20T03:58:15.265Z,4.63
2022-10-20T04:00:43.156Z,4.25
2022-10-20T04:03:13.844Z,3.85
2022-10-20T04:05:41.753Z,4.07
2022-10-20T04:08:12.169Z,4.40
2022-10-20T04:10:46.145Z,4.03
2022-10-20T04:13:16.252Z,4.68
2022-10-20T04:15:51.819Z,4.00
2022-10-20T04:18:19.488Z,3.97
2022-10-20T04:20:52.979Z,4.20
2022-10-20T04:23:20.961Z,3.95
2022-10-20T04:25:49.908Z,4.32
2022-10-20T04:28:26.134Z,3.95
2022-10-20T04:30:54.739Z,4.10
2022-10-20T04:33:22.306Z,4.10
2022-10-20T04:36:04.238Z,3.97
2022-10-20T04:38:38.327Z,3.90
2022-10-20T04:41:06.478Z,4.57
2022-10-20T04:43:35.342Z,4.03
2022-10-20T04:46:08.665Z,3.92
2022-10-20T04:48:42.585Z,4.85
2022-10-20T04:53:45.229Z,3.97
2022-10-20T04:58:54.307Z,3.97
2022-10-20T05:01:24.208Z,3.58
2022-10-20T05:03:52.376Z,3.80
2022-10-20T05:06:30.461Z,4.18
2022-10-20T05:09:03.784Z,3.92
2022-10-20T05:11:40.862Z,3.78
2022-10-20T05:14:12.275Z,3.67
2022-10-20T05:16:40.451Z,4.28
2022-10-20T05:19:14.774Z,3.90
2022-10-20T05:21:52.776Z,4.30
2022-10-20T05:24:30.496Z,3.80
2022-10-20T05:27:35.176Z,3.95
2022-10-20T05:30:06.720Z,4.00
2022-10-20T05:32:35.071Z,4.05
2022-10-20T05:35:07.103Z,3.72
2022-10-20T05:37:41.520Z,3.92
2022-10-20T05:40:14.034Z,3.80
2022-10-20T05:42:47.804Z,4.53
2022-10-20T05:47:54.997Z,3.90
2022-10-20T05:50:25.735Z,3.75
2022-10-20T05:52:59.647Z,3.78
2022-10-20T05:55:32.138Z,3.83
2022-10-20T05:57:59.838Z,3.50
2022-10-20T06:00:31.441Z,4.45
2022-10-20T06:03:00.656Z,3.88
2022-10-20T06:05:32.250Z,4.03
2022-10-20T06:08:00.471Z,4.05
2022-10-20T06:10:31.136Z,4.07
2022-10-20T06:12:59.153Z,3.95
2022-10-20T06:15:30.171Z,3.97
2022-10-20T06:17:57.841Z,4.10
2022-10-20T06:20:27.943Z,3.67
2022-10-20T06:23:00.469Z,3.88
2022-10-20T06:25:28.309Z,3.55
2022-10-20T06:27:55.642Z,3.75
2022-10-20T06:30:25.366Z,3.70
2022-10-20T06:32:58.669Z,4.13
2022-10-20T06:37:53.489Z,3.80
2022-10-20T06:40:25.414Z,3.30
2022-10-20T06:45:31.118Z,3.60
2022-10-20T06:47:58.536Z,3.45
2022-10-20T06:50:28.539Z,3.78
2022-10-20T06:53:02.638Z,4.07
2022-10-20T06:55:33.094Z,3.50
2022-10-20T06:58:08.231Z,3.42
2022-10-20T07:00:42.612Z,3.78
2022-10-20T07:03:15.348Z,3.70
2022-10-20T07:05:45.131Z,4.13
2022-10-20T07:08:15.552Z,3.90
2022-10-20T07:10:48.792Z,4.03
2022-10-20T07:13:18.489Z,3.78
2022-10-20T07:15:55.926Z,3.95
2022-10-20T07:18:27.557Z,3.85
2022-10-20T07:21:07.985Z,4.28
2022-10-20T07:23:36.613Z,4.80
2022-10-20T07:26:17.710Z,4.43
2022-10-20T07:28:54.809Z,4.32
2022-10-20T07:31:38.047Z,4.43
2022-10-20T07:34:31.267Z,4.53
2022-10-20T07:37:01.678Z,4.47
2022-10-20T07:39:35.044Z,4.90
2022-10-20T07:42:04.903Z,5.13
2022-10-20T07:44:38.856Z,4.65
2022-10-20T07:47:09.334Z,5.45
2022-10-20T07:49:44.240Z,5.10
2022-10-20T07:52:16.712Z,5.28
2022-10-20T07:54:47.575Z,5.65
2022-10-20T07:57:18.586Z,5.13
2022-10-20T07:59:49.325Z,5.22
2022-10-20T08:02:21.069Z,5.80
2022-10-20T08:04:49.232Z,5.47
2022-10-20T08:07:20.731Z,5.22
2022-10-20T08:09:51.982Z,4.90
2022-10-20T08:12:23.075Z,4.97
2022-10-20T08:14:53.950Z,5.07
2022-10-20T08:17:32.677Z,5.47
2022-10-20T08:22:55.685Z,5.90
2022-10-20T08:25:26.800Z,5.25
2022-10-20T08:30:33.778Z,6.35
2022-10-20T08:33:11.124Z,6.35
2022-10-20T08:35:49.263Z,5.57
2022-10-20T08:38:17.052Z,6.20
2022-10-20T08:40:53.205Z,6.32
2022-10-20T08:43:23.457Z,6.00
2022-10-20T08:45:57.127Z,6.07
2022-10-20T08:48:33.898Z,5.95
2022-10-20T08:51:16.724Z,6.00
2022-10-20T08:53:49.608Z,6.10
2022-10-20T08:56:23.307Z,5.47
2022-10-20T08:58:59.613Z,5.72
2022-10-20T09:01:35.457Z,5.85
2022-10-20T09:04:30.211Z,5.93
2022-10-20T09:07:01.860Z,5.50
2022-10-20T09:09:34.121Z,5.88
2022-10-20T09:12:08.378Z,5.70
2022-10-20T09:14:40.649Z,6.40
2022-10-20T09:17:19.059Z,5.70
2022-10-20T09:19:54.660Z,6.03
2022-10-20T09:22:34.904Z,5.65
2022-10-20T09:25:22.366Z,6.10
2022-10-20T09:28:01.461Z,6.00
2022-10-20T09:30:29.207Z,6.20
2022-10-20T09:33:29.153Z,6.18
2022-10-20T09:36:09.206Z,5.40
2022-10-20T09:38:47.917Z,5.30
2022-10-20T09:41:23.829Z,5.82
2022-10-20T09:44:00.988Z,5.55
2022-10-20T09:46:37.620Z,5.75
2022-10-20T09:49:10.744Z,5.70
2022-10-20T09:51:38.807Z,5.70
2022-10-20T09:54:17.009Z,5.07
2022-10-20T09:56:50.722Z,5.57
2022-10-20T09:59:40.495Z,5.25
2022-10-20T10:02:20.161Z,5.65
2022-10-20T10:05:14.152Z,5.38
2022-10-20T10:07:45.224Z,5.10
2022-10-20T10:10:27.793Z,5.22
2022-10-20T10:13:04.186Z,5.22
2022-10-20T10:15:39.218Z,5.53
2022-10-20T10:18:23.217Z,5.28
2022-10-20T10:21:06.472Z,4.63
2022-10-20T10:23:36.918Z,5.00
2022-10-20T10:26:32.974Z,5.55
2022-10-20T10:29:04.118Z,5.10
2022-10-20T10:31:33.599Z,4.95
2022-10-20T10:34:13.683Z,4.35
2022-10-20T10:36:41.266Z,4.82
2022-10-20T10:39:14.834Z,5.05
2022-10-20T10:42:00.914Z,5.38
2022-10-20T10:44:39.271Z,5.20
2022-10-20T10:47:49.240Z,4.90
2022-10-20T10:50:29.791Z,5.25
2022-10-20T10:53:16.203Z,5.25
2022-10-20T10:59:05.344Z,4.32
2022-10-20T11:02:11.672Z,5.28
2022-10-20T11:05:00.117Z,5.18
2022-10-20T11:08:02.206Z,5.07
2022-10-20T11:10:56.508Z,4.70
2022-10-20T11:13:47.868Z,4.88
2022-10-20T11:16:36.917Z,5.00
2022-10-20T11:19:33.335Z,5.00
2022-10-20T11:22:31.334Z,5.30
2022-10-20T11:25:11.124Z,5.28
2022-10-20T11:27:45.238Z,4.90
2022-10-20T11:30:18.423Z,5.25
2022-10-20T11:33:21.312Z,4.70
2022-10-20T11:35:56.948Z,5.05
2022-10-20T11:38:50.062Z,4.90
2022-10-20T11:41:49.971Z,4.97
2022-10-20T11:44:41.186Z,5.15
2022-10-20T11:47:18.923Z,5.25
2022-10-20T11:49:52.337Z,5.82
2022-10-20T11:52:45.188Z,5.57
2022-10-20T11:55:26.456Z,5.70
2022-10-20T11:58:12.807Z,6.13
2022-10-20T12:01:00.045Z,5.93
2022-10-20T12:04:02.590Z,5.78
2022-10-20T12:06:54.141Z,5.82
2022-10-20T12:09:39.903Z,5.80
2022-10-20T12:12:42.162Z,5.93
2022-10-20T12:15:25.466Z,5.72
2022-10-20T12:18:33.942Z,6.38
2022-10-20T12:21:09.563Z,6.40
2022-10-20T12:23:46.110Z,6.30
2022-10-20T12:26:38.752Z,6.30
2022-10-20T12:29:30.454Z,6.28
2022-10-20T12:32:26.091Z,6.28
2022-10-20T12:35:00.414Z,6.05
2022-10-20T12:37:42.145Z,6.20
2022-10-20T12:40:12.737Z,5.85
2022-10-20T12:42:47.560Z,6.25
2022-10-20T12:45:24.192Z,6.50
2022-10-20T12:48:01.231Z,6.25
2022-10-20T12:50:39.435Z,6.30
2022-10-20T12:53:22.979Z,6.00
2022-10-20T12:56:04.879Z,6.18
2022-10-20T12:58:56.589Z,5.40
2022-10-20T13:01:29.168Z,5.68
2022-10-20T13:04:01.728Z,5.70
2022-10-20T13:06:35.485Z,5.55
2022-10-20T13:09:11.710Z,5.65
2022-10-20T13:11:56.112Z,5.78
2022-10-20T13:15:06.957Z,5.40
2022-10-20T13:18:01.850Z,5.18
2022-10-20T13:20:57.324Z,5.57
2022-10-20T13:23:40.009Z,5.68
2022-10-20T13:26:20.271Z,5.20
2022-10-20T13:28:54.918Z,5.75
2022-10-20T13:31:53.358Z,5.07
2022-10-20T13:34:39.428Z,4.75
2022-10-20T13:37:37.120Z,5.05
2022-10-20T13:40:24.148Z,5.03
2022-10-20T13:43:22.291Z,5.00
2022-10-20T13:46:01.116Z,5.20
2022-10-20T13:48:44.391Z,4.78
2022-10-20T13:51:21.546Z,5.50
2022-10-20T13:53:59.737Z,4.70
2022-10-20T13:56:43.036Z,5.30
2022-10-20T14:02:03.898Z,6.03
2022-10-20T14:04:37.442Z,5.10
2022-10-20T14:09:51.439Z,5.60
2022-10-20T14:12:31.440Z,7.45
2022-10-20T14:15:08.699Z,6.75
2022-10-20T14:17:44.484Z,6.80
2022-10-20T14:20:20.739Z,7.18
2022-10-20T14:22:54.458Z,7.63
2022-10-20T14:25:30.723Z,7.75
2022-10-20T14:28:05.137Z,8.05
2022-10-20T14:30:41.099Z,8.00
2022-10-20T14:33:20.714Z,7.72
2022-10-20T14:35:54.841Z,8.27
2022-10-20T14:38:44.553Z,7.57
2022-10-20T14:41:26.483Z,7.18
2022-10-20T14:44:06.124Z,7.55
2022-10-20T14:46:41.810Z,7.32
2022-10-20T14:49:19.372Z,7.80
2022-10-20T14:52:21.745Z,8.13
2022-10-20T14:54:52.588Z,7.55
2022-10-20T14:57:23.301Z,6.90
2022-10-20T15:00:03.541Z,7.50
2022-10-20T15:02:47.781Z,6.68
2022-10-20T15:05:44.591Z,7.28
2022-10-20T15:08:26.510Z,7.28
2022-10-20T15:10:58.697Z,7.05
2022-10-20T15:13:32.786Z,7.03
2022-10-20T15:16:08.192Z,6.50
2022-10-20T15:18:39.248Z,6.13
2022-10-20T15:21:12.015Z,6.68
2022-10-20T15:23:42.536Z,6.00
2022-10-20T15:26:14.316Z,6.40
2022-10-20T15:28:52.715Z,6.38
2022-10-20T15:31:25.733Z,6.53
2022-10-20T15:33:57.198Z,6.65
2022-10-20T15:36:29.795Z,6.38
2022-10-20T15:38:57.902Z,5.97
2022-10-20T15:41:34.656Z,6.38
2022-10-20T15:44:19.727Z,6.85
2022-10-20T15:46:50.703Z,6.35
2022-10-20T15:49:34.273Z,5.88
2022-10-20T15:52:06.129Z,6.30
2022-10-20T15:54:42.014Z,6.30
2022-10-20T15:57:15.363Z,5.90
2022-10-20T16:02:21.290Z,5.82
2022-10-20T16:04:52.667Z,6.05
2022-10-20T16:07:21.551Z,5.75
2022-10-20T16:09:49.968Z,5.55
2022-10-20T16:12:21.024Z,6.28
2022-10-20T16:14:54.447Z,6.07
2022-10-20T16:17:28.548Z,6.15
2022-10-20T16:19:59.684Z,5.40
2022-10-20T16:22:30.278Z,5.95
2022-10-20T16:25:01.514Z,5.68
2022-10-20T16:27:30.920Z,5.50
2022-10-20T16:30:03.729Z,5.78
2022-10-20T16:32:35.461Z,5.68
2022-10-20T16:35:07.450Z,5.78
2022-10-20T16:37:41.113Z,5.93
2022-10-20T16:40:14.366Z,5.60
2022-10-20T16:42:50.753Z,6.07
2022-10-20T16:47:48.902Z,5.85
2022-10-20T16:50:16.968Z,6.05
2022-10-20T16:52:50.137Z,5.80
2022-10-20T16:55:22.371Z,6.35
2022-10-20T16:57:55.975Z,5.72
2022-10-20T17:00:27.155Z,5.90
2022-10-20T17:02:57.789Z,6.30
2022-10-20T17:05:27.583Z,6.32
2022-10-20T17:07:58.575Z,6.50
2022-10-20T17:10:30.761Z,6.90
2022-10-20T17:13:01.807Z,6.28
2022-10-20T17:15:35.492Z,6.45
2022-10-20T17:18:03.484Z,5.57
2022-10-20T17:20:39.777Z,6.32
2022-10-20T17:23:07.607Z,6.40
2022-10-20T17:25:41.598Z,6.15
2022-10-20T17:28:12.009Z,6.07
2022-10-20T17:30:46.531Z,6.25
2022-10-20T17:33:14.232Z,6.57
2022-10-20T17:35:47.689Z,5.47
2022-10-20T17:38:19.927Z,5.90
2022-10-20T17:40:50.142Z,6.18
2022-10-20T17:43:19.240Z,6.40
2022-10-20T17:46:08.147Z,6.10
2022-10-20T17:48:36.974Z,6.50
2022-10-20T17:51:10.654Z,6.95
2022-10-20T17:53:41.051Z,6.30
2022-10-20T17:58:46.238Z,6.25
2022-10-20T18:01:17.922Z,6.17
2022-10-20T18:03:46.563Z,6.57
2022-10-20T18:06:25.664Z,6.50
2022-10-20T18:08:58.290Z,6.88
2022-10-20T18:11:33.334Z,6.65
2022-10-20T18:14:01.264Z,6.40
2022-10-20T18:16:33.961Z,6.50
2022-10-20T18:19:04.425Z,5.95
2022-10-20T18:21:37.504Z,6.28
2022-10-20T18:24:07.235Z,6.15
2022-10-20T18:26:36.903Z,6.40
2022-10-20T18:29:06.555Z,6.05
2022-10-20T18:31:36.165Z,6.32
2022-10-20T18:34:07.841Z,6.15
2022-10-20T18:36:40.375Z,6.38
2022-10-20T18:39:13.142Z,6.38
2022-10-20T18:41:43.147Z,6.05
2022-10-20T18:44:16.680Z,6.22
2022-10-20T18:49:16.677Z,6.20
2022-10-20T18:52:03.111Z,6.10
2022-10-20T18:54:33.323Z,6.20
2022-10-20T18:57:00.985Z,6.22
2022-10-20T18:59:30.978Z,6.13
2022-10-20T19:01:58.894Z,5.60
2022-10-20T19:04:28.813Z,5.93
2022-10-20T19:06:56.517Z,6.00
2022-10-20T19:09:26.413Z,6.78
2022-10-20T19:11:54.303Z,5.63
2022-10-20T19:14:22.735Z,6.07
2022-10-20T19:16:53.404Z,5.95
2022-10-20T19:19:23.297Z,6.07
2022-10-20T19:21:53.394Z,5.90
2022-10-20T19:24:23.307Z,5.82
2022-10-20T19:27:24.514Z,5.88
2022-10-20T19:29:44.921Z,6.03
2022-10-20T19:32:12.413Z,5.82
2022-10-20T19:34:41.605Z,6.13
2022-10-20T19:37:09.905Z,5.80
2022-10-20T19:39:42.328Z,5.35
2022-10-20T19:42:10.854Z,5.90
2022-10-20T19:44:38.705Z,5.80
2022-10-20T19:47:08.005Z,6.13
2022-10-20T19:49:38.380Z,5.85
2022-10-20T19:52:07.665Z,5.97
2022-10-20T19:54:38.221Z,5.63
2022-10-20T19:57:09.397Z,5.25
2022-10-20T19:59:36.879Z,5.28
2022-10-20T20:02:06.698Z,5.85
2022-10-20T20:04:34.242Z,5.43
2022-10-20T20:07:04.789Z,5.65
2022-10-20T20:09:33.435Z,5.20
2022-10-20T20:12:01.111Z,6.03
2022-10-20T20:14:33.982Z,5.45
2022-10-20T20:17:01.707Z,5.93
2022-10-20T20:19:31.878Z,5.38
2022-10-20T20:21:59.411Z,5.65
2022-10-20T20:24:27.016Z,5.53
2022-10-20T20:26:55.149Z,4.82
2022-10-20T20:29:25.025Z,5.55
2022-10-20T20:31:52.968Z,5.18
2022-10-20T20:34:20.870Z,5.53
2022-10-20T20:36:49.298Z,5.20
2022-10-20T20:39:17.008Z,5.80
2022-10-20T20:41:44.635Z,5.40
2022-10-20T20:44:15.570Z,5.28
2022-10-20T20:46:46.167Z,4.97
2022-10-20T20:49:14.112Z,4.93
2022-10-20T20:51:44.094Z,5.13
2022-10-20T20:54:13.921Z,5.05
2022-10-20T20:56:43.120Z,5.10
2022-10-20T20:59:10.649Z,5.03
2022-10-20T21:01:38.340Z,5.05
2022-10-20T21:04:10.278Z,5.00
2022-10-20T21:07:00.706Z,4.95
2022-10-20T21:09:27.131Z,5.05
2022-10-20T21:11:54.599Z,5.35
2022-10-20T21:14:22.879Z,5.25
2022-10-20T21:16:58.263Z,5.20
2022-10-20T21:19:25.802Z,5.68
2022-10-20T21:22:01.263Z,5.18
2022-10-20T21:24:29.415Z,5.30
2022-10-20T21:26:57.241Z,4.53
2022-10-20T21:29:25.237Z,4.47
2022-10-20T21:31:55.084Z,4.85
2022-10-20T21:34:22.511Z,5.00
2022-10-20T21:36:52.273Z,4.82
2022-10-20T21:39:19.891Z,4.88
2022-10-20T21:41:49.020Z,5.00
2022-10-20T21:44:16.874Z,4.53
2022-10-20T21:46:49.356Z,4.47
2022-10-20T21:49:19.991Z,4.38
2022-10-20T21:51:56.473Z,4.63
2022-10-20T21:54:29.064Z,4.75
2022-10-20T21:56:57.369Z,4.75
2022-10-20T21:59:30.203Z,4.72
2022-10-20T22:02:00.500Z,4.30
2022-10-20T22:04:29.741Z,4.75
2022-10-20T22:06:59.467Z,4.80
2022-10-20T22:09:27.444Z,5.07
2022-10-20T22:11:56.644Z,4.50
2022-10-20T22:14:24.439Z,4.40
2022-10-20T22:16:52.224Z,4.22
2022-10-20T22:19:22.372Z,4.15
2022-10-20T22:21:51.739Z,4.28
2022-10-20T22:24:22.783Z,4.65
2022-10-20T22:26:53.056Z,4.13
2022-10-20T22:29:22.445Z,4.40
2022-10-20T22:31:50.092Z,4.40
2022-10-20T22:34:17.884Z,4.53
2022-10-20T22:36:45.571Z,5.05
2022-10-20T22:39:15.416Z,4.28
2022-10-20T22:41:42.891Z,4.30
2022-10-20T22:44:13.193Z,4.60
2022-10-20T22:46:40.572Z,4.38
2022-10-20T22:49:08.349Z,4.60
2022-10-20T22:51:38.251Z,4.05
2022-10-20T22:54:05.731Z,3.90
2022-10-20T22:56:33.203Z,4.57
2022-10-20T22:59:00.581Z,4.28
2022-10-20T23:01:28.260Z,4.60
2022-10-20T23:03:55.897Z,4.35
2022-10-20T23:06:27.923Z,3.97
2022-10-20T23:08:58.759Z,4.35
2022-10-20T23:11:29.567Z,4.15
2022-10-20T23:13:57.025Z,4.00
2022-10-20T23:16:27.524Z,4.28
2022-10-20T23:18:55.302Z,4.47
2022-10-20T23:21:22.932Z,4.72
2022-10-20T23:23:53.158Z,4.03
2022-10-20T23:26:23.156Z,4.03
2022-10-20T23:28:50.860Z,4.10
2022-10-20T23:31:22.935Z,4.50
2022-10-20T23:33:55.167Z,3.85
2022-10-20T23:36:22.936Z,4.30
2022-10-20T23:38:51.274Z,4.47
2022-10-20T23:41:21.298Z,4.15
2022-10-20T23:43:48.756Z,4.28
2022-10-20T23:46:16.121Z,4.22
2022-10-20T23:48:48.344Z,4.40
2022-10-20T23:51:18.154Z,3.70
2022-10-20T23:53:45.535Z,4.13
2022-10-20T23:56:13.010Z,4.22
2022-10-20T23:58:40.478Z,4.22
